Friday Harbor, WA

8:38 PM PDT on September 20, 2014 (GMT -0700)
San Juan Wx | Change Station
CLOSE
Current Station
Personal Weather Station
Location: Friday Harbor, WA
Elevation: 223 ft
Nearby Weather Stations

Elev 223 ft 48.51 °N, 123.04 °W | Updated 8 minutes ago

Clear
Clear
58.3 °F
Feels Like 58.3 °F
N
2.2
Wind Variable Wind from WNW

Today
High -- | Low -- °F
--% Chance of Precip.
Yesterday
High -- | Low -- °F
Precip. -- in
6:56 AM 7:14 PM
Waning Crescent, 9% visible
Pressure 29.93 in
Visibility 10.0 miles
Clouds Clear
Dew Point 55 °F
Humidity 88%
Rainfall 0.00 in
Snow Depth 0 in , 0 in , 0 in
UV 0 out of 12
Pollen 1.30 out of 12
Air Quality Not available.
Flu Activity Not available.
METAR KFHR 210253Z AUTO 00000KT 10SM CLR 16/12 A2993 RMK AO2 SLP135 T01610117 56019

More Conditions Fewer Conditions

Pressure 29.93 in
Visibility 10.0 miles
Clouds Clear
Dew Point 55 °F
Humidity 88%
Rainfall 0.00 in
Snow Depth 0 in , 0 in , 0 in
UV 0 out of 12
Pollen 1.30 out of 12
Air Quality Not available.
Flu Activity Not available.
METAR KFHR 210253Z AUTO 00000KT 10SM CLR 16/12 A2993 RMK AO2 SLP135 T01610117 56019

More Conditions Fewer Conditions

10-Day Weather Forecast

Almanac

Astronomy

Sep. 20, 2014 Rise Set
Actual Time 6:56 AM PDT 7:14 PM PDT
Civil Twilight 6:24 AM PDT 7:45 PM PDT
Nautical Twilight 5:47 AM PDT 8:22 PM PDT
Astronomical Twilight 5:09 AM PDT 9:00 PM PDT
Moon 3:27 AM PDT (9/20) 5:31 PM PDT (9/20)
Length of Visible Light 13h 20m
Length of Day
12h 17m
Tomorrow will be 3m 32s shorter.
Waning Crescent, 9% of the Moon is Illuminated
Today
Waning Crescent
Sep 24
New
Oct 1
First Quarter
Oct 8
Full
Oct 15
Last Quarter

Today's Extremes

State Highs State Lows

Community

WunderPhotos

Upload Photos

1,755,073 photos uploaded!

Nearby

Snow Depth

Station Depth Elevation
Elbow Lake 0 in 3200 ft
Spirit Lake 0 in 3120 ft
Spruce Springs 0 in 5700 ft
Swift Creek 0 in 3770 ft
Pigtail Peak 0 in 5900 ft

Earthquake Activity

City Distance Mag. Time & Date
Seabeck, Washington 67 miles 4.0 3:06 AM PDT
2014-09-17
Minimum magnitude displayed is 2.5.

Coastal Water Temperatures

Place Temperature
Port Townsend, WA 53.1 °F
Friday Harbor, WA 52.0 °F
Port Angeles, WA 52.0 °F

Nearby Weather Stations